AirNav   Duncan Aviation - Near you to keep you flying
 
 873 users online  

WI67 Bennett Field Airport
Ripon, Wisconsin, USA

GOING TO RIPON?


FAA INFORMATION EFFECTIVE 26 JANUARY 2023

Location

FAA Identifier: WI67
Lat/Long: 43-52-35.9340N 088-54-02.4050W
43-52.598900N 088-54.040083W
43.8766483,-88.9006681
(estimated)
Elevation: 935 ft. / 285 m (estimated)
Variation: 00W (1990)
From city: 3 miles NW of RIPON, WI
Time zone: UTC -6 (UTC -5 during Daylight Saving Time)
Zip code: 54971

Airport Operations

Airport use: Private use. Permission required prior to landing
Activation date: 05/1990
Control tower: no
ARTCC: CHICAGO CENTER
FSS: GREEN BAY FLIGHT SERVICE STATION
Attendance: 0800-2000
Wind indicator: yes
Segmented circle: no

Airport Communications

UNICOM: 122.8
WX ASOS at OSH (16 nm NE): PHONE 920-426-1644
WX ASOS at FLD (19 nm E): 134.0 (920-922-4444)

Nearby radio navigation aids

VOR radial/distance  VOR name  Freq  Var
OSHr243/16.4OSHKOSH VORTAC116.7502E

 
NDB name  Hdg/Dist  Freq  Var  ID
POBER274/14.839503WOS --- ...

Airport Services

Runway Information

Runway 9/27

Dimensions: 2500 x 100 ft. / 762 x 30 m
Surface: turf
RUNWAY 9  RUNWAY 27
Traffic pattern: leftleft

Airport Ownership and Management from official FAA records

Ownership: Privately-owned
Owner: GLEN BENNETT
N6698 COUNTY ROAD PP
RIPON, WI 54971
Phone 920-299-6283
Manager: GLEN BENNETT
N6698 COUNTY ROAD PP
RIPON, WI 54971
Phone 920-299-6283

Airport Operational Statistics

Aircraft based on the field: 9
Single engine airplanes: 7
Ultralights: 2
    

Additional Remarks

FOR CD CTC CHICAGO ARTCC AT 630-906-8921.

Instrument Procedures

There are no published instrument procedures at WI67.

Some nearby airports with instrument procedures:

KOSH - Wittman Regional Airport (16 nm NE)
KFLD - Fond Du Lac County Airport (19 nm E)
Y50 - Wautoma Municipal Airport (20 nm NW)
KPCZ - Waupaca Municipal Airport (28 nm N)
KATW - Appleton International Airport (28 nm NE)
 
Loc | Ops | Rwys | IFR | FBO | Links
Com | Nav | Svcs | Stats | Notes
Area around WI67 (Bennett Field Airport)
 
Road maps at: MapQuest Bing Google
 
Aerial photo
No photo
 
Sectional chart

 
Airport distance calculator
Flying to Bennett Field Airport? Find the distance to fly.

From to WI67

Sunrise and sunset
Times for 06-Feb-2023
 Local
(UTC-6)
 Zulu
(UTC)
Morning civil twilight06:3812:38
Sunrise07:0813:08
Sunset17:1223:12
Evening civil twilight17:4223:42

Current date and time
Zulu (UTC)  07-Feb-2023 04:44:16
Local (UTC-6)  06-Feb-2023 22:44:16
 
METAR
KOSH 
16nm E 
070353Z 16018G27KT 10SM SCT048 BKN070 OVC100 04/M02 A2970 RMK AO2 PK WND 15028/0257 SLP069 T00391022
KFLD 
19nm E 
070353Z AUTO 16017G29KT 10SM BKN049 OVC060 04/M02 A2971 RMK AO2 PK WND 16029/0344 PRESFR SLP069 T00441017
KY50 
20nm NW 
070356Z AUTO 17010G19KT 10SM -RA SCT046 BKN065 OVC100 03/M02 A2966 RMK AO2 RAB54 SLP052 T00331017 $
KATW 
28nm NE 
070345Z 16015G22KT 10SM OVC050 02/M02 A2969
KPCZ 
28nm N 
070435Z AUTO 16011G16KT 10SM -RA SCT042 BKN050 OVC080 04/M01 A2964 RMK AO2 T00411010
KUNU 
29nm S 
070435Z AUTO 14015G20KT 10SM OVC040 03/M01 A2970 RMK AO2 T00251015
TAF
NOTAMs
Click for the latest NOTAMs
NOTAMs are issued by the DoD/FAA and will open in a separate window not controlled by AirNav.

 

 
 

Would you like to see your business listed on this page?

 If your business provides an interesting product or service to pilots, flight crews, aircraft, or users of the Bennett Field Airport, you should consider listing it here.  To start the listing process, click on the button below
 
Add a business
 

Other Pages about Bennett Field Airport

Update a link
 
Copyright © AirNav, LLC. All rights reserved. Privacy Policy  Contact